Airfield :
LOGIN :

Register | Disclaimer

   EN    FR    IT 

 










Legend :    VFR   Marginal VFR   IFR   Intensive IFR   Very Intensive IFR
Visi :
Ceiling :
>= 8 km
>= 3000ft
5 to 8 km
1000 to 3000 ft
1500m to 5 km
500 to 1000 ft
800 to 1500m
200 to 500 ft
< 800m
< 200 ft
Symbols :   Thunderstorms  Fog  Heavy snow  Heavy precipitations  Wind > 20 kt
SIGMETs :     Misc.  Thunderstorms  Icing  Turbulence  Mountain Waves  Volcanic Ashes







- Airport Elevation : 238 ft
- IATA code : FAB
- Download approach charts


EGLF - Farnborough

CURRENT METAR :
  • 180750Z 22009KT 9999 FEW013 SCT030 17/14 Q1021

EXPIRED METARs :
  • 180720Z 23009KT 9999 SCT013 SCT030 17/14 Q1021
  • 180650Z 23008KT 9999 FEW013 SCT030 17/14 Q1021

TAF TAF EGLF
Valid from the 18 at 07:00 until the 18 at 15:00 UTC


180728Z 1807/1815 23008KT 9999 BKN030
PROB30
TEMPO 1807/1809 -RA BKN013
ATIS : +44 09063 800 400 (*282)
No reported NOTAMs for that airfield.
1 SIGMET reported for the London FIR (EGTT) :
 
Severe mountain waves
EGTT SIGMET 02 VALID 180730/181130 EGRR
EGTT LONDON FIR SEV MTW OBS WI N5500 W00100 - N5500 E00000 - N5300 W00130 - N5300 W00530 - N5500 W00530 - N5500 W00100 FL040/250 STNR NC=



MET'MAP, your aeronautical weather chart ! - Copyright ORBIFLY December 2007 - Disclaimer

ORBIFLY MET'MAP TEAM :

Programming & Development : Alexandra Zaïnal
Concept & Development : Baudouin d'Aumeries
Co-Development & Prog : Marc-Olivier Méhu
Technical & hardware support : Manuel Goepfert

Contact : metmap@orbifly.com




SOURCES & CREDITS :

   NOAA